createdAt,value
2019-06-27T00:01:48.135Z,20.00
2019-06-27T00:04:16.643Z,20.00
2019-06-27T00:06:45.100Z,20.00
2019-06-27T00:09:13.719Z,20.00
2019-06-27T00:11:42.234Z,20.00
2019-06-27T00:14:10.680Z,19.90
2019-06-27T00:16:39.185Z,19.90
2019-06-27T00:19:07.643Z,19.90
2019-06-27T00:21:36.154Z,19.90
2019-06-27T00:24:04.708Z,19.90
2019-06-27T00:26:33.238Z,19.80
2019-06-27T00:29:01.762Z,19.80
2019-06-27T00:31:30.221Z,19.80
2019-06-27T00:33:59.413Z,19.80
2019-06-27T00:36:28.135Z,19.70
2019-06-27T00:38:56.576Z,19.70
2019-06-27T00:41:25.133Z,19.70
2019-06-27T00:43:53.555Z,19.70
2019-06-27T00:46:22.020Z,19.60
2019-06-27T00:48:50.447Z,19.60
2019-06-27T00:51:18.900Z,19.70
2019-06-27T00:53:47.352Z,19.60
2019-06-27T00:56:15.782Z,19.60
2019-06-27T00:58:44.236Z,19.60
2019-06-27T01:01:12.967Z,19.60
2019-06-27T01:03:41.497Z,19.50
2019-06-27T01:06:09.921Z,19.50
2019-06-27T01:08:38.451Z,19.40
2019-06-27T01:11:07.027Z,19.40
2019-06-27T01:13:35.483Z,19.30
2019-06-27T01:16:04.091Z,19.40
2019-06-27T01:18:32.540Z,19.30
2019-06-27T01:21:01.065Z,19.30
2019-06-27T01:23:29.729Z,19.30
2019-06-27T01:25:58.236Z,19.30
2019-06-27T01:28:26.683Z,19.20
2019-06-27T01:30:56.881Z,19.20
2019-06-27T01:33:25.333Z,19.20
2019-06-27T01:35:53.763Z,19.20
2019-06-27T01:38:22.217Z,19.20
2019-06-27T01:40:51.445Z,19.20
2019-06-27T01:43:19.914Z,19.20
2019-06-27T01:45:56.214Z,19.20
2019-06-27T01:48:24.809Z,19.10
2019-06-27T01:50:53.412Z,19.10
2019-06-27T01:53:21.864Z,19.10
2019-06-27T01:55:50.299Z,19.00
2019-06-27T01:58:18.762Z,19.00
2019-06-27T02:00:47.264Z,19.00
2019-06-27T02:03:15.967Z,18.90
2019-06-27T02:05:44.475Z,18.90
2019-06-27T02:08:12.923Z,18.90
2019-06-27T02:10:42.023Z,18.90
2019-06-27T02:13:10.452Z,18.90
2019-06-27T02:15:38.975Z,18.90
2019-06-27T02:18:07.476Z,18.90
2019-06-27T02:20:36.005Z,18.80
2019-06-27T02:23:04.458Z,18.80
2019-06-27T02:25:32.908Z,18.80
2019-06-27T02:28:04.216Z,18.80
2019-06-27T02:30:40.128Z,18.80
2019-06-27T02:33:09.860Z,18.80
2019-06-27T02:35:38.380Z,18.80
2019-06-27T02:38:07.182Z,18.70
2019-06-27T02:40:37.249Z,18.70
2019-06-27T02:43:05.904Z,18.70
2019-06-27T02:45:34.360Z,18.70
2019-06-27T02:48:02.797Z,18.60
2019-06-27T02:50:31.400Z,18.60
2019-06-27T02:52:59.906Z,18.60
2019-06-27T02:55:28.716Z,18.60
2019-06-27T02:57:57.445Z,18.60
2019-06-27T03:00:25.911Z,18.50
2019-06-27T03:02:54.431Z,18.50
2019-06-27T03:05:23.013Z,18.50
2019-06-27T03:07:51.581Z,18.50
2019-06-27T03:10:20.477Z,18.50
2019-06-27T03:12:48.927Z,18.50
2019-06-27T03:15:19.072Z,18.50
2019-06-27T03:17:47.624Z,18.50
2019-06-27T03:20:18.381Z,18.40
2019-06-27T03:22:46.794Z,18.40
2019-06-27T03:25:15.246Z,18.40
2019-06-27T03:27:43.685Z,18.40
2019-06-27T03:30:12.783Z,18.40
2019-06-27T03:32:41.288Z,18.40
2019-06-27T03:35:10.084Z,18.40
2019-06-27T03:37:38.582Z,18.40
2019-06-27T03:40:08.054Z,18.40
2019-06-27T03:42:36.512Z,18.40
2019-06-27T03:45:07.164Z,18.40
2019-06-27T03:47:35.607Z,18.40
2019-06-27T03:50:07.989Z,18.40
2019-06-27T03:52:36.453Z,18.40
2019-06-27T03:55:05.626Z,18.50
2019-06-27T03:57:34.082Z,18.50
2019-06-27T04:00:02.807Z,18.50
2019-06-27T04:02:31.255Z,18.50
2019-06-27T04:04:59.692Z,18.50
2019-06-27T04:07:28.149Z,18.60
2019-06-27T04:09:56.603Z,18.50
2019-06-27T04:12:26.656Z,18.60
2019-06-27T04:14:55.088Z,18.60
2019-06-27T04:17:25.080Z,18.60
2019-06-27T04:19:53.673Z,18.70
2019-06-27T04:22:22.117Z,18.80
2019-06-27T04:24:50.560Z,18.80
2019-06-27T04:27:19.002Z,18.80
2019-06-27T04:29:47.508Z,18.80
2019-06-27T04:32:16.023Z,18.90
2019-06-27T04:34:44.492Z,19.00
2019-06-27T04:37:12.945Z,19.00
2019-06-27T04:39:41.396Z,19.00
2019-06-27T04:42:09.858Z,19.10
2019-06-27T04:44:38.333Z,19.10
2019-06-27T04:47:06.780Z,19.20
2019-06-27T04:49:35.241Z,19.20
2019-06-27T04:52:03.707Z,19.30
2019-06-27T04:54:32.231Z,19.40
2019-06-27T04:57:00.664Z,19.50
2019-06-27T04:59:30.857Z,19.50
2019-06-27T05:01:59.362Z,19.60
2019-06-27T05:04:30.788Z,19.70
2019-06-27T05:06:59.244Z,19.70
2019-06-27T05:09:27.697Z,19.80
2019-06-27T05:11:56.195Z,19.90
2019-06-27T05:14:24.665Z,20.00
2019-06-27T05:16:53.074Z,20.00
2019-06-27T05:19:21.540Z,20.10
2019-06-27T05:21:49.969Z,20.30
2019-06-27T05:24:18.436Z,20.40
2019-06-27T05:26:47.097Z,20.50
2019-06-27T05:29:15.548Z,20.70
2019-06-27T05:31:44.184Z,20.80
2019-06-27T05:34:12.643Z,20.90
2019-06-27T05:36:41.081Z,21.00
2019-06-27T05:39:09.527Z,21.10
2019-06-27T05:41:38.013Z,21.20
2019-06-27T05:44:06.479Z,21.40
2019-06-27T05:46:34.908Z,21.50
2019-06-27T05:49:03.358Z,21.60
2019-06-27T05:51:31.787Z,21.60
2019-06-27T05:54:00.221Z,21.80
2019-06-27T05:56:28.663Z,22.00
2019-06-27T05:58:57.095Z,22.10
2019-06-27T06:01:25.632Z,22.20
2019-06-27T06:03:54.068Z,22.40
2019-06-27T06:06:22.585Z,22.50
2019-06-27T06:08:51.079Z,22.70
2019-06-27T06:11:19.731Z,22.80
2019-06-27T06:13:48.155Z,23.00
2019-06-27T06:16:16.601Z,23.10
2019-06-27T06:18:45.032Z,23.40
2019-06-27T06:21:13.487Z,23.70
2019-06-27T06:23:43.247Z,24.10
2019-06-27T06:26:11.693Z,24.30
2019-06-27T06:28:40.140Z,24.60
2019-06-27T06:31:08.710Z,24.90
2019-06-27T06:33:37.143Z,25.00
2019-06-27T06:36:05.682Z,25.30
2019-06-27T06:38:34.178Z,25.50
2019-06-27T06:41:02.781Z,25.80
2019-06-27T06:43:31.221Z,26.10
2019-06-27T06:45:59.671Z,26.40
2019-06-27T06:48:28.113Z,26.70
2019-06-27T06:50:56.559Z,27.00
2019-06-27T06:53:44.332Z,27.20
2019-06-27T06:56:12.778Z,27.50
2019-06-27T06:58:41.482Z,27.70
2019-06-27T07:01:10.184Z,28.10
2019-06-27T07:03:38.633Z,28.30
2019-06-27T07:06:07.120Z,28.20
2019-06-27T07:08:35.572Z,28.30
2019-06-27T07:11:04.007Z,28.60
2019-06-27T07:13:32.481Z,28.50
2019-06-27T07:16:00.911Z,29.10
2019-06-27T07:18:29.374Z,29.50
2019-06-27T07:20:57.875Z,29.70
2019-06-27T07:23:26.368Z,30.00
2019-06-27T07:25:54.904Z,29.60
2019-06-27T07:28:23.354Z,29.70
2019-06-27T07:30:51.792Z,29.50
2019-06-27T07:33:20.320Z,29.40
2019-06-27T07:35:48.750Z,29.50
2019-06-27T07:38:17.215Z,29.40
2019-06-27T07:40:45.721Z,29.60
2019-06-27T07:43:15.814Z,29.80
2019-06-27T07:45:44.250Z,30.10
2019-06-27T07:48:12.702Z,30.30
2019-06-27T07:50:41.149Z,30.50
2019-06-27T07:53:09.597Z,30.60
2019-06-27T07:55:38.032Z,30.80
2019-06-27T07:58:06.510Z,30.80
2019-06-27T08:00:35.020Z,30.80
2019-06-27T08:03:04.073Z,31.20
2019-06-27T08:05:32.647Z,31.40
2019-06-27T08:08:01.103Z,31.50
2019-06-27T08:10:29.524Z,31.60
2019-06-27T08:12:57.972Z,31.70
2019-06-27T08:15:26.427Z,31.20
2019-06-27T08:17:54.936Z,31.20
2019-06-27T08:20:23.512Z,31.00
2019-06-27T08:22:52.095Z,30.80
2019-06-27T08:25:20.670Z,30.80
2019-06-27T08:27:49.244Z,30.70
2019-06-27T08:30:17.923Z,30.50
2019-06-27T08:32:46.372Z,30.70
2019-06-27T08:35:15.118Z,30.60
2019-06-27T08:37:45.119Z,31.10
2019-06-27T08:40:14.323Z,31.60
2019-06-27T08:42:44.191Z,31.80
2019-06-27T08:45:14.686Z,31.90
2019-06-27T08:47:43.330Z,32.10
2019-06-27T08:50:12.127Z,32.10
2019-06-27T08:52:40.551Z,32.00
2019-06-27T08:55:09.070Z,32.00
2019-06-27T08:57:37.548Z,32.10
2019-06-27T09:00:08.146Z,31.80
2019-06-27T09:02:36.662Z,31.80
2019-06-27T09:05:07.129Z,31.80
2019-06-27T09:07:35.664Z,31.70
2019-06-27T09:10:05.697Z,32.00
2019-06-27T09:12:34.132Z,32.30
2019-06-27T09:15:02.919Z,32.40
2019-06-27T09:17:31.362Z,32.10
2019-06-27T09:19:59.815Z,32.80
2019-06-27T09:22:28.236Z,32.50
2019-06-27T09:24:56.726Z,32.60
2019-06-27T09:27:25.218Z,32.80
2019-06-27T09:29:53.861Z,32.90
2019-06-27T09:32:25.957Z,33.50
2019-06-27T09:34:52.604Z,33.20
2019-06-27T09:37:21.514Z,33.50
2019-06-27T09:39:50.125Z,34.00
2019-06-27T09:42:18.544Z,33.20
2019-06-27T09:44:46.974Z,32.90
2019-06-27T09:47:15.438Z,33.10
2019-06-27T09:49:45.524Z,33.00
2019-06-27T09:52:14.092Z,33.20
2019-06-27T09:54:42.715Z,33.10
2019-06-27T09:57:11.227Z,32.80
2019-06-27T09:59:39.659Z,32.60
2019-06-27T10:02:08.271Z,33.30
2019-06-27T10:04:36.714Z,33.40
2019-06-27T10:07:05.359Z,33.60
2019-06-27T10:09:33.810Z,33.20
2019-06-27T10:12:02.474Z,33.20
2019-06-27T10:14:30.914Z,33.30
2019-06-27T10:16:59.435Z,33.00
2019-06-27T10:19:27.863Z,33.30
2019-06-27T10:21:56.309Z,33.80
2019-06-27T10:24:24.880Z,33.60
2019-06-27T10:26:53.391Z,33.40
2019-06-27T10:29:21.884Z,33.70
2019-06-27T10:31:50.403Z,32.80
2019-06-27T10:34:18.941Z,32.60
2019-06-27T10:36:47.547Z,32.70
2019-06-27T10:39:15.996Z,32.90
2019-06-27T10:41:44.546Z,33.30
2019-06-27T10:44:13.088Z,33.60
2019-06-27T10:46:43.062Z,33.30
2019-06-27T10:49:11.620Z,33.40
2019-06-27T10:51:40.186Z,33.50
2019-06-27T10:54:09.004Z,33.10
2019-06-27T10:56:40.060Z,33.30
2019-06-27T10:59:07.788Z,33.40
2019-06-27T11:01:36.295Z,33.90
2019-06-27T11:04:06.284Z,33.70
2019-06-27T11:06:34.792Z,34.10
2019-06-27T11:09:04.193Z,34.30
2019-06-27T11:11:32.757Z,33.80
2019-06-27T11:14:01.266Z,34.10
2019-06-27T11:16:29.723Z,33.70
2019-06-27T11:18:59.305Z,33.90
2019-06-27T11:21:27.754Z,34.00
2019-06-27T11:23:56.369Z,34.90
2019-06-27T11:26:24.804Z,34.60
2019-06-27T11:28:53.247Z,34.10
2019-06-27T11:31:21.688Z,34.00
2019-06-27T11:33:50.127Z,34.10
2019-06-27T11:36:18.584Z,34.20
2019-06-27T11:38:47.392Z,34.10
2019-06-27T11:41:15.961Z,34.20
2019-06-27T11:43:44.430Z,34.70
2019-06-27T11:46:12.943Z,34.70
2019-06-27T11:48:41.419Z,34.90
2019-06-27T11:51:10.046Z,34.70
2019-06-27T11:53:38.495Z,34.90
2019-06-27T11:56:08.020Z,33.90
2019-06-27T11:58:36.503Z,33.90
2019-06-27T12:01:05.096Z,34.30
2019-06-27T12:03:48.399Z,34.30
2019-06-27T12:06:03.925Z,34.00
2019-06-27T12:08:32.355Z,33.90
2019-06-27T12:11:00.909Z,33.80
2019-06-27T12:13:29.480Z,33.60
2019-06-27T12:15:58.898Z,33.60
2019-06-27T12:18:27.334Z,34.00
2019-06-27T12:20:55.787Z,33.70
2019-06-27T12:23:24.213Z,33.50
2019-06-27T12:25:52.668Z,33.60
2019-06-27T12:28:22.650Z,33.60
2019-06-27T12:30:51.178Z,33.60
2019-06-27T12:33:19.735Z,33.80
2019-06-27T12:35:48.209Z,33.70
2019-06-27T12:38:16.688Z,33.90
2019-06-27T12:40:45.130Z,34.40
2019-06-27T12:43:14.640Z,34.40
2019-06-27T12:45:43.299Z,34.10
2019-06-27T12:48:11.828Z,34.40
2019-06-27T12:50:40.408Z,33.90
2019-06-27T12:53:08.865Z,34.30
2019-06-27T12:55:37.376Z,33.70
2019-06-27T12:58:05.892Z,33.60
2019-06-27T13:00:34.411Z,33.80
2019-06-27T13:03:02.852Z,34.30
2019-06-27T13:05:31.320Z,34.10
2019-06-27T13:07:59.738Z,33.90
2019-06-27T13:10:35.706Z,33.80
2019-06-27T13:13:06.651Z,34.10
2019-06-27T13:15:35.296Z,34.20
2019-06-27T13:18:03.761Z,34.20
2019-06-27T13:20:33.783Z,34.10
2019-06-27T13:23:02.239Z,34.00
2019-06-27T13:25:34.276Z,34.20
2019-06-27T13:28:02.428Z,34.30
2019-06-27T13:30:30.947Z,34.40
2019-06-27T13:32:59.414Z,34.40
2019-06-27T13:35:29.624Z,34.30
2019-06-27T13:37:58.089Z,34.50
2019-06-27T13:40:26.577Z,34.70
2019-06-27T13:42:55.768Z,34.10
2019-06-27T13:45:26.648Z,34.10
2019-06-27T13:47:54.659Z,33.80
2019-06-27T13:50:23.213Z,34.20
2019-06-27T13:52:54.627Z,34.20
2019-06-27T13:55:24.223Z,34.30
2019-06-27T13:57:52.585Z,34.00
2019-06-27T14:00:29.903Z,34.20
2019-06-27T14:02:58.373Z,34.10
2019-06-27T14:05:26.795Z,34.10
2019-06-27T14:07:55.251Z,34.10
2019-06-27T14:10:23.696Z,33.90
2019-06-27T14:12:52.225Z,34.00
2019-06-27T14:15:22.190Z,33.80
2019-06-27T14:17:50.899Z,33.90
2019-06-27T14:20:19.400Z,34.10
2019-06-27T14:22:47.831Z,33.60
2019-06-27T14:25:16.519Z,33.50
2019-06-27T14:27:44.958Z,33.70
2019-06-27T14:30:13.892Z,33.30
2019-06-27T14:32:42.427Z,33.30
2019-06-27T14:35:15.818Z,33.40
2019-06-27T14:37:42.127Z,33.40
2019-06-27T14:40:11.220Z,33.60
2019-06-27T14:42:39.695Z,33.30
2019-06-27T14:45:08.606Z,33.50
2019-06-27T14:47:37.076Z,33.20
2019-06-27T14:50:08.844Z,33.20
2019-06-27T14:52:37.304Z,33.20
2019-06-27T14:55:07.259Z,33.10
2019-06-27T14:57:35.943Z,32.80
2019-06-27T15:00:06.850Z,32.60
2019-06-27T15:02:35.263Z,32.60
2019-06-27T15:05:04.758Z,32.50
2019-06-27T15:07:33.254Z,32.00
2019-06-27T15:10:01.921Z,31.70
2019-06-27T15:12:34.819Z,31.70
2019-06-27T15:15:02.040Z,31.60
2019-06-27T15:17:32.160Z,31.50
2019-06-27T15:20:00.595Z,31.30
2019-06-27T15:22:29.104Z,31.20
2019-06-27T15:24:57.686Z,31.10
2019-06-27T15:27:26.135Z,30.80
2019-06-27T15:29:54.563Z,30.60
2019-06-27T15:32:23.010Z,30.30
2019-06-27T15:34:51.430Z,30.40
2019-06-27T15:37:21.803Z,30.30
2019-06-27T15:39:50.222Z,30.20
2019-06-27T15:42:18.692Z,30.30
2019-06-27T15:44:47.183Z,30.30
2019-06-27T15:47:15.798Z,30.30
2019-06-27T15:49:45.224Z,30.00
2019-06-27T15:52:13.746Z,30.00
2019-06-27T15:54:42.174Z,29.80
2019-06-27T15:57:10.679Z,29.80
2019-06-27T15:59:39.114Z,29.60
2019-06-27T16:02:07.626Z,29.50
2019-06-27T16:04:36.056Z,29.40
2019-06-27T16:07:04.703Z,29.30
2019-06-27T16:09:33.150Z,29.20
2019-06-27T16:12:01.671Z,29.10
2019-06-27T16:14:30.218Z,28.90
2019-06-27T16:16:58.728Z,28.90
2019-06-27T16:19:27.154Z,28.80
2019-06-27T16:21:55.962Z,28.80
2019-06-27T16:24:24.450Z,28.80
2019-06-27T16:26:53.021Z,28.90
2019-06-27T16:29:21.471Z,28.70
2019-06-27T16:31:49.964Z,28.60
2019-06-27T16:34:18.393Z,28.50
2019-06-27T16:36:46.907Z,28.50
2019-06-27T16:39:15.347Z,28.40
2019-06-27T16:41:44.056Z,28.40
2019-06-27T16:44:12.494Z,28.40
2019-06-27T16:46:40.931Z,28.20
2019-06-27T16:49:09.386Z,28.20
2019-06-27T16:51:37.841Z,28.10
2019-06-27T16:54:06.434Z,28.00
2019-06-27T16:56:34.857Z,28.00
2019-06-27T16:59:03.371Z,27.90
2019-06-27T17:01:31.837Z,27.90
2019-06-27T17:04:00.323Z,27.70
2019-06-27T17:06:41.280Z,27.70
2019-06-27T17:08:59.106Z,27.50
2019-06-27T17:11:27.527Z,27.50
2019-06-27T17:13:55.991Z,27.50
2019-06-27T17:16:24.466Z,27.40
2019-06-27T17:18:52.931Z,27.40
2019-06-27T17:21:21.409Z,27.40
2019-06-27T17:23:49.922Z,27.30
2019-06-27T17:26:18.358Z,27.20
2019-06-27T17:28:46.789Z,27.10
2019-06-27T17:31:15.317Z,27.00
2019-06-27T17:33:43.768Z,27.00
2019-06-27T17:36:12.199Z,26.90
2019-06-27T17:38:40.631Z,26.90
2019-06-27T17:41:09.151Z,26.70
2019-06-27T17:43:39.250Z,26.70
2019-06-27T17:46:08.011Z,26.70
2019-06-27T17:48:36.434Z,26.60
2019-06-27T17:51:07.835Z,26.40
2019-06-27T17:53:36.899Z,26.30
2019-06-27T17:56:05.411Z,26.30
2019-06-27T17:58:33.962Z,26.20
2019-06-27T18:01:02.547Z,26.10
2019-06-27T18:03:31.026Z,26.10
2019-06-27T18:05:59.490Z,26.00
2019-06-27T18:08:27.925Z,26.00
2019-06-27T18:10:56.366Z,25.80
2019-06-27T18:13:24.779Z,25.70
2019-06-27T18:15:53.245Z,25.60
2019-06-27T18:18:21.663Z,25.50
2019-06-27T18:20:50.486Z,25.40
2019-06-27T18:23:18.913Z,25.30
2019-06-27T18:25:48.976Z,25.20
2019-06-27T18:28:17.410Z,25.10
2019-06-27T18:30:45.869Z,25.00
2019-06-27T18:33:14.303Z,24.90
2019-06-27T18:35:43.032Z,24.80
2019-06-27T18:38:11.994Z,24.60
2019-06-27T18:40:42.075Z,24.50
2019-06-27T18:43:10.510Z,24.40
2019-06-27T18:45:38.970Z,24.30
2019-06-27T18:48:07.475Z,24.10
2019-06-27T18:50:36.005Z,24.10
2019-06-27T18:53:06.494Z,24.00
2019-06-27T18:55:36.596Z,23.80
2019-06-27T18:58:05.117Z,23.80
2019-06-27T19:00:33.572Z,23.60
2019-06-27T19:03:02.069Z,23.60
2019-06-27T19:05:30.496Z,23.50
2019-06-27T19:08:00.659Z,23.30
2019-06-27T19:10:29.100Z,23.20
2019-06-27T19:12:57.602Z,23.10
2019-06-27T19:15:26.102Z,22.90
2019-06-27T19:17:54.530Z,22.90
2019-06-27T19:20:36.400Z,22.70
2019-06-27T19:23:06.497Z,22.60
2019-06-27T19:25:36.583Z,22.60
2019-06-27T19:28:05.243Z,22.40
2019-06-27T19:30:35.191Z,22.30
2019-06-27T19:33:03.748Z,22.20
2019-06-27T19:35:32.306Z,22.00
2019-06-27T19:38:02.731Z,22.00
2019-06-27T19:40:31.000Z,21.90
2019-06-27T19:42:59.455Z,21.70
2019-06-27T19:45:28.038Z,21.60
2019-06-27T19:47:56.553Z,21.50
2019-06-27T19:50:24.967Z,21.40
2019-06-27T19:52:53.487Z,21.20
2019-06-27T19:55:22.002Z,21.10
2019-06-27T19:57:50.629Z,21.00
2019-06-27T20:00:19.241Z,21.00
2019-06-27T20:02:49.279Z,20.90
2019-06-27T20:05:17.764Z,20.80
2019-06-27T20:07:46.281Z,20.80
2019-06-27T20:10:15.236Z,20.60
2019-06-27T20:12:43.691Z,20.50
2019-06-27T20:15:12.675Z,20.20
2019-06-27T20:17:41.155Z,20.00
2019-06-27T20:20:09.952Z,19.70
2019-06-27T20:22:38.393Z,19.60
2019-06-27T20:25:07.641Z,19.50
2019-06-27T20:27:36.072Z,19.30
2019-06-27T20:30:07.578Z,19.20
2019-06-27T20:32:36.098Z,19.10
2019-06-27T20:35:06.742Z,18.90
2019-06-27T20:37:35.250Z,18.70
2019-06-27T20:40:08.213Z,18.60
2019-06-27T20:42:36.638Z,18.50
2019-06-27T20:45:08.697Z,18.40
2019-06-27T20:47:37.196Z,18.40
2019-06-27T20:50:06.635Z,18.30
2019-06-27T20:52:35.238Z,18.10
2019-06-27T20:55:04.259Z,18.10
2019-06-27T20:57:32.683Z,17.90
2019-06-27T21:00:01.142Z,17.80
2019-06-27T21:02:29.568Z,17.80
2019-06-27T21:04:58.032Z,17.70
2019-06-27T21:07:26.469Z,17.70
2019-06-27T21:09:55.047Z,17.60
2019-06-27T21:12:25.252Z,17.50
2019-06-27T21:14:53.775Z,17.50
2019-06-27T21:17:22.201Z,17.30
2019-06-27T21:19:50.715Z,17.20
2019-06-27T21:22:19.309Z,17.10
2019-06-27T21:24:47.911Z,17.00
2019-06-27T21:27:17.099Z,16.90
2019-06-27T21:29:45.621Z,16.70
2019-06-27T21:32:30.171Z,16.60
2019-06-27T21:34:44.331Z,16.50
2019-06-27T21:37:12.776Z,16.40
2019-06-27T21:39:41.195Z,16.40
2019-06-27T21:42:09.660Z,16.30
2019-06-27T21:44:38.135Z,16.30
2019-06-27T21:47:06.573Z,16.20
2019-06-27T21:49:35.084Z,16.20
2019-06-27T21:52:05.064Z,16.00
2019-06-27T21:54:33.507Z,16.00
2019-06-27T21:57:02.020Z,15.90
2019-06-27T21:59:30.457Z,15.80
2019-06-27T22:01:58.993Z,15.70
2019-06-27T22:04:30.492Z,15.60
2019-06-27T22:06:57.839Z,15.40
2019-06-27T22:09:26.496Z,15.30
2019-06-27T22:11:55.241Z,15.20
2019-06-27T22:14:23.698Z,15.20
2019-06-27T22:16:52.191Z,15.10
2019-06-27T22:19:20.611Z,15.00
2019-06-27T22:21:49.083Z,14.90
2019-06-27T22:24:17.550Z,14.90
2019-06-27T22:26:47.322Z,14.90
2019-06-27T22:29:15.777Z,14.80
2019-06-27T22:31:44.283Z,14.80
2019-06-27T22:34:12.696Z,14.70
2019-06-27T22:36:41.117Z,14.60
2019-06-27T22:39:39.911Z,14.50
2019-06-27T22:42:16.259Z,14.50
2019-06-27T22:45:02.459Z,14.50
2019-06-27T22:47:49.635Z,14.40
2019-06-27T22:50:21.936Z,14.30
2019-06-27T22:53:07.330Z,14.20
2019-06-27T22:55:35.950Z,14.10
2019-06-27T22:58:04.400Z,14.00
2019-06-27T23:00:32.911Z,13.90
2019-06-27T23:03:01.435Z,13.90
2019-06-27T23:05:29.924Z,13.90
2019-06-27T23:08:00.180Z,13.90
2019-06-27T23:10:28.639Z,13.80
2019-06-27T23:12:57.094Z,13.70
2019-06-27T23:15:27.115Z,13.70
2019-06-27T23:17:58.598Z,13.60
2019-06-27T23:20:27.270Z,13.50
2019-06-27T23:22:55.806Z,13.50
2019-06-27T23:25:26.977Z,13.40
2019-06-27T23:27:55.492Z,13.40
2019-06-27T23:30:24.003Z,13.40
2019-06-27T23:32:52.546Z,13.30
2019-06-27T23:35:20.982Z,13.20
2019-06-27T23:37:49.403Z,13.30
2019-06-27T23:40:18.100Z,13.20
2019-06-27T23:42:46.513Z,13.20
2019-06-27T23:45:15.032Z,13.20
2019-06-27T23:47:43.464Z,13.10
2019-06-27T23:50:12.235Z,13.00
2019-06-27T23:52:40.673Z,13.00
2019-06-27T23:55:10.721Z,12.90
2019-06-27T23:57:39.215Z,12.90
